KAFF

Usaf Academy Afld Airport

Colorado Springs, Colorado, USA
METAR KAFF 132358Z AUTO 26004KT 10SM CLR M02/M16 A3022 RMK AO2 SLP280 T10201165 10033 21021
Observed Flight Rules
Dec-13 @ 23:58 UTC (an hour ago) Visual Flight Rules
Wind Visibility Clouds
260° at 4 knots 10 miles
  • Clear skies
Temperatures Readings
Current -2°C / 28°F
Dewpoint -17°C / 1°F
Humidity 31%
Altimeter 30.22" Hg
Pressure 1028 hPa
Elevation 2003
METAR KAFF 132358Z AUTO 26004KT 10SM CLR M02/M16 A3022 RMK AO2 SLP280 T10201165 10033 21021
Observed Flight Rules
Dec-13 @ 23:58 UTC
(an hour ago)
VFR
Wind Visibility
260° at 4 knots 10 miles
Clouds
  • Clear skies
Temperature Dewpoint
-2°C / 28°F -17°C / 1°F
Humidity Altimeter Pressure
31% 30.22" Hg 1028 hPa